createdAt,value
2022-08-08T00:02:03.994Z,101293.31
2022-08-08T00:07:28.594Z,101289.69
2022-08-08T00:13:20.708Z,101281.22
2022-08-08T00:19:13.581Z,101255.72
2022-08-08T00:24:45.552Z,101266.88
2022-08-08T00:30:11.132Z,101278.59
2022-08-08T00:35:48.241Z,101276.31
2022-08-08T00:42:08.266Z,101273.47
2022-08-08T00:48:05.070Z,101268.50
2022-08-08T00:53:57.087Z,101272.72
2022-08-08T00:59:44.333Z,101273.03
2022-08-08T01:05:59.354Z,101257.03
2022-08-08T01:11:40.959Z,101267.44
2022-08-08T01:17:25.285Z,101274.59
2022-08-08T01:24:06.492Z,101275.25
2022-08-08T01:29:59.828Z,101258.69
2022-08-08T01:35:40.399Z,101269.81
2022-08-08T01:41:22.589Z,101255.41
2022-08-08T01:48:15.587Z,101267.66
2022-08-08T01:55:26.314Z,101265.84
2022-08-08T02:00:01.688Z,101260.66
2022-08-08T02:05:56.476Z,101266.84
2022-08-08T02:11:53.065Z,101266.19
2022-08-08T02:17:24.784Z,101261.84
2022-08-08T02:23:00.593Z,101268.88
2022-08-08T02:28:48.174Z,101286.41
2022-08-08T02:34:33.329Z,101289.31
2022-08-08T02:40:13.264Z,101291.53
2022-08-08T02:45:56.755Z,101296.63
2022-08-08T02:51:55.577Z,101298.22
2022-08-08T02:57:51.321Z,101297.78
2022-08-08T03:05:05.355Z,101298.69
2022-08-08T03:09:33.145Z,101303.56
2022-08-08T03:15:59.704Z,101296.72
2022-08-08T03:20:54.939Z,101307.81
2022-08-08T03:26:23.085Z,101302.38
2022-08-08T03:32:06.594Z,101303.09
2022-08-08T03:38:55.095Z,101299.03
2022-08-08T03:43:18.059Z,101305.13
2022-08-08T03:49:09.837Z,101303.28
2022-08-08T03:54:52.592Z,101310.97
2022-08-08T04:00:12.213Z,101302.41
2022-08-08T04:05:49.844Z,101293.28
2022-08-08T04:11:17.404Z,101296.84
2022-08-08T04:16:49.239Z,101294.28
2022-08-08T04:22:11.265Z,101307.06
2022-08-08T04:28:03.464Z,101310.84
2022-08-08T04:33:18.450Z,101306.28
2022-08-08T04:38:42.791Z,101306.63
2022-08-08T04:44:05.638Z,101309.03
2022-08-08T04:49:28.854Z,101305.22
2022-08-08T04:55:09.701Z,101313.72
2022-08-08T05:00:32.489Z,101313.53
2022-08-08T05:05:54.961Z,101319.19
2022-08-08T05:11:24.125Z,101315.91
2022-08-08T05:16:53.956Z,101324.78
2022-08-08T05:22:22.638Z,101326.75
2022-08-08T05:27:44.527Z,101325.59
2022-08-08T05:33:06.765Z,101335.63
2022-08-08T05:38:32.079Z,101326.19
2022-08-08T05:44:04.602Z,101334.53
2022-08-08T05:49:26.890Z,101336.34
2022-08-08T05:54:55.847Z,101334.97
2022-08-08T06:00:27.235Z,101343.69
2022-08-08T06:05:58.944Z,101345.03
2022-08-08T06:11:22.213Z,101348.06
2022-08-08T06:16:52.056Z,101353.50
2022-08-08T06:28:00.865Z,101350.56
2022-08-08T06:33:37.046Z,101355.13
2022-08-08T06:39:15.130Z,101344.72
2022-08-08T06:44:42.605Z,101344.66
2022-08-08T06:50:06.527Z,101352.22
2022-08-08T06:55:30.059Z,101359.31
2022-08-08T07:01:01.792Z,101362.66
2022-08-08T07:06:49.964Z,101351.09
2022-08-08T07:12:18.170Z,101365.00
2022-08-08T07:18:01.581Z,101365.59
2022-08-08T07:24:01.264Z,101359.72
2022-08-08T07:30:00.411Z,101359.31
2022-08-08T07:35:09.420Z,101365.69
2022-08-08T07:40:32.908Z,101365.22
2022-08-08T07:46:18.145Z,101363.16
2022-08-08T07:51:45.533Z,101362.72
2022-08-08T07:57:48.175Z,101361.25
2022-08-08T08:03:23.606Z,101364.38
2022-08-08T08:09:00.651Z,101374.75
2022-08-08T08:14:53.801Z,101369.03
2022-08-08T08:20:18.776Z,101380.16
2022-08-08T08:25:46.818Z,101370.03
2022-08-08T08:31:15.120Z,101370.44
2022-08-08T08:36:39.387Z,101359.78
2022-08-08T08:42:02.583Z,101362.19
2022-08-08T08:47:26.011Z,101363.25
2022-08-08T08:52:59.520Z,101359.75
2022-08-08T08:58:30.870Z,101357.13
2022-08-08T09:03:59.643Z,101353.41
2022-08-08T09:09:35.294Z,101355.06
2022-08-08T09:15:02.308Z,101358.25
2022-08-08T09:22:04.774Z,101345.00
2022-08-08T09:26:26.964Z,101352.88
2022-08-08T09:32:05.739Z,101347.56
2022-08-08T09:38:00.839Z,101349.94
2022-08-08T09:43:40.873Z,101332.19
2022-08-08T09:49:40.870Z,101332.00
2022-08-08T09:54:54.467Z,101352.38
2022-08-08T10:00:49.663Z,101341.00
2022-08-08T10:06:01.069Z,101344.66
2022-08-08T10:12:27.746Z,101344.91
2022-08-08T10:17:57.098Z,101341.69
2022-08-08T10:22:59.592Z,101320.28
2022-08-08T10:28:25.631Z,101322.59
2022-08-08T10:34:20.250Z,101319.47
2022-08-08T10:39:53.616Z,101326.38
2022-08-08T10:45:17.021Z,101323.75
2022-08-08T10:50:39.935Z,101320.63
2022-08-08T10:56:04.817Z,101319.44
2022-08-08T11:01:33.476Z,101303.56
2022-08-08T11:07:00.355Z,101307.78
2022-08-08T11:12:22.309Z,101305.22
2022-08-08T11:18:01.297Z,101307.41
2022-08-08T11:23:25.024Z,101304.25
2022-08-08T11:28:56.106Z,101290.06
2022-08-08T11:34:23.373Z,101302.97
2022-08-08T11:39:57.469Z,101292.69
2022-08-08T11:45:22.585Z,101283.63
2022-08-08T11:50:47.697Z,101279.63
2022-08-08T11:56:24.346Z,101290.31
2022-08-08T12:01:46.846Z,101292.25
2022-08-08T12:07:16.790Z,101303.91
2022-08-08T12:12:48.696Z,101289.84
2022-08-08T12:18:21.350Z,101285.09
2022-08-08T12:23:59.527Z,101274.47
2022-08-08T12:29:40.640Z,101280.50
2022-08-08T12:35:17.903Z,101276.69
2022-08-08T12:40:56.796Z,101284.16
2022-08-08T12:46:26.122Z,101291.38
2022-08-08T12:51:50.194Z,101274.38
2022-08-08T12:57:23.460Z,101266.84
2022-08-08T13:02:58.174Z,101264.53
2022-08-08T13:08:22.713Z,101267.81
2022-08-08T13:14:04.023Z,101263.88
2022-08-08T13:19:26.216Z,101256.88
2022-08-08T13:25:15.642Z,101269.94
2022-08-08T13:30:37.578Z,101268.97
2022-08-08T13:36:00.289Z,101265.03
2022-08-08T13:41:23.143Z,101265.41
2022-08-08T13:47:02.290Z,101255.09
2022-08-08T13:52:37.464Z,101261.94
2022-08-08T13:58:07.407Z,101258.69
2022-08-08T14:03:52.637Z,101256.91
2022-08-08T14:09:24.863Z,101260.50
2022-08-08T14:14:52.037Z,101268.59
2022-08-08T14:20:41.907Z,101279.13
2022-08-08T14:26:00.679Z,101269.84
2022-08-08T14:32:06.181Z,101268.97
2022-08-08T14:37:16.993Z,101279.94
2022-08-08T14:42:54.675Z,101267.38
2022-08-08T14:48:34.540Z,101263.75
2022-08-08T14:54:02.965Z,101255.56
2022-08-08T14:59:44.641Z,101246.56
2022-08-08T15:05:10.623Z,101252.31
2022-08-08T15:10:33.657Z,101252.84
2022-08-08T15:16:02.654Z,101258.22
2022-08-08T15:21:27.529Z,101240.56
2022-08-08T15:26:53.187Z,101244.53
2022-08-08T15:32:20.645Z,101237.88
2022-08-08T15:37:44.948Z,101231.22
2022-08-08T15:43:18.648Z,101238.03
2022-08-08T15:48:48.761Z,101232.22
2022-08-08T15:54:18.419Z,101232.84
2022-08-08T16:00:06.848Z,101243.00
2022-08-08T16:06:00.936Z,101237.44
2022-08-08T16:13:11.563Z,101257.25
2022-08-08T16:17:02.220Z,101251.47
2022-08-08T16:22:29.010Z,101237.97
2022-08-08T16:27:57.959Z,101253.47
2022-08-08T16:33:20.153Z,101247.56
2022-08-08T16:39:17.053Z,101251.78
2022-08-08T16:44:47.433Z,101258.81
2022-08-08T16:50:16.716Z,101272.94
2022-08-08T16:55:52.610Z,101265.66
2022-08-08T17:01:16.713Z,101272.16
2022-08-08T17:06:43.881Z,101288.00
2022-08-08T17:12:07.597Z,101279.34
2022-08-08T17:18:01.458Z,101286.00
2022-08-08T17:23:58.634Z,101290.72
2022-08-08T17:29:03.921Z,101284.69
2022-08-08T17:34:48.550Z,101298.28
2022-08-08T17:40:12.352Z,101304.03
2022-08-08T17:45:36.615Z,101310.16
2022-08-08T17:50:59.279Z,101309.97
2022-08-08T17:56:21.114Z,101315.34
2022-08-08T18:01:54.004Z,101323.66
2022-08-08T18:08:03.500Z,101331.97
2022-08-08T18:12:57.860Z,101328.41
2022-08-08T18:18:28.811Z,101340.13
2022-08-08T18:23:56.138Z,101350.00
2022-08-08T18:29:20.792Z,101363.34
2022-08-08T18:34:45.944Z,101362.59
2022-08-08T18:40:13.012Z,101372.63
2022-08-08T18:46:00.450Z,101376.00
2022-08-08T18:51:40.603Z,101373.66
2022-08-08T18:56:58.987Z,101375.44
2022-08-08T19:02:27.995Z,101383.06
2022-08-08T19:07:52.270Z,101380.41
2022-08-08T19:13:21.423Z,101378.16
2022-08-08T19:18:51.850Z,101377.25
2022-08-08T19:24:42.331Z,101382.66
2022-08-08T19:30:01.363Z,101387.81
2022-08-08T19:35:25.696Z,101387.13
2022-08-08T19:41:05.796Z,101395.84
2022-08-08T19:46:28.204Z,101395.84
2022-08-08T19:51:55.609Z,101403.06
2022-08-08T19:57:17.501Z,101408.75
2022-08-08T20:02:39.955Z,101403.00
2022-08-08T20:08:39.674Z,101413.34
2022-08-08T20:14:11.936Z,101416.13
2022-08-08T20:19:26.307Z,101419.03
2022-08-08T20:24:56.752Z,101426.88
2022-08-08T20:30:52.715Z,101417.75
2022-08-08T20:36:08.610Z,101432.38
2022-08-08T20:41:30.667Z,101425.69
2022-08-08T20:46:55.747Z,101427.81
2022-08-08T20:52:17.608Z,101431.63
2022-08-08T20:57:43.883Z,101436.59
2022-08-08T21:03:09.635Z,101426.72
2022-08-08T21:08:49.079Z,101424.09
2022-08-08T21:14:11.281Z,101416.22
2022-08-08T21:19:45.210Z,101422.22
2022-08-08T21:25:10.776Z,101424.16
2022-08-08T21:30:36.527Z,101416.66
2022-08-08T21:36:16.423Z,101433.28
2022-08-08T21:41:51.176Z,101427.09
2022-08-08T21:48:20.366Z,101434.78
2022-08-08T21:54:33.038Z,101436.16
2022-08-08T21:58:44.423Z,101434.03
2022-08-08T22:04:16.602Z,101431.72
2022-08-08T22:09:41.352Z,101429.03
2022-08-08T22:15:07.714Z,101423.91
2022-08-08T22:20:29.553Z,101424.22
2022-08-08T22:26:26.648Z,101431.97
2022-08-08T22:31:35.245Z,101427.97
2022-08-08T22:36:57.281Z,101433.03
2022-08-08T22:42:27.509Z,101440.19
2022-08-08T22:47:54.138Z,101436.84
2022-08-08T22:54:33.848Z,101434.78
2022-08-08T22:58:58.045Z,101437.00
2022-08-08T23:04:32.219Z,101451.63
2022-08-08T23:09:58.714Z,101448.13
2022-08-08T23:16:39.063Z,101451.47
2022-08-08T23:21:04.068Z,101441.84
2022-08-08T23:26:27.144Z,101441.34
2022-08-08T23:31:48.990Z,101443.88
2022-08-08T23:37:12.197Z,101437.94
2022-08-08T23:42:34.329Z,101448.56
2022-08-08T23:49:00.411Z,101450.56
2022-08-08T23:54:05.589Z,101445.75
2022-08-08T23:59:19.977Z,101450.16
